sensor_id;sensor_type;location;lat;lon;timestamp;pressure;altitude;pressure_sealevel;temperature;humidity
63399;BME280;49533;-34.520;150.798;2023-04-08T00:02:08;98850.38;;;20.96;47.65
63399;BME280;49533;-34.520;150.798;2023-04-08T00:04:35;98841.06;;;20.87;46.84
63399;BME280;49533;-34.520;150.798;2023-04-08T00:07:02;98892.50;;;21.27;46.38
63399;BME280;49533;-34.520;150.798;2023-04-08T00:09:29;98873.28;;;21.20;46.89
63399;BME280;49533;-34.520;150.798;2023-04-08T00:11:56;98886.06;;;21.34;46.84
63399;BME280;49533;-34.520;150.798;2023-04-08T00:14:23;98860.53;;;21.26;46.44
63399;BME280;49533;-34.520;150.798;2023-04-08T00:16:50;98856.69;;;21.20;46.46
63399;BME280;49533;-34.520;150.798;2023-04-08T00:19:17;98853.53;;;21.22;46.78
63399;BME280;49533;-34.520;150.798;2023-04-08T00:21:45;98892.94;;;21.49;47.16
63399;BME280;49533;-34.520;150.798;2023-04-08T00:24:13;98835.50;;;21.14;47.62
63399;BME280;49533;-34.520;150.798;2023-04-08T00:26:42;98881.41;;;21.55;47.25
63399;BME280;49533;-34.520;150.798;2023-04-08T00:29:09;98887.59;;;21.62;48.11
63399;BME280;49533;-34.520;150.798;2023-04-08T00:31:36;98810.22;;;21.15;47.81
63399;BME280;49533;-34.520;150.798;2023-04-08T00:34:03;98801.69;;;21.06;47.43
63399;BME280;49533;-34.520;150.798;2023-04-08T00:36:30;98841.09;;;21.34;47.09
63399;BME280;49533;-34.520;150.798;2023-04-08T00:38:57;98898.88;;;21.71;46.98
63399;BME280;49533;-34.520;150.798;2023-04-08T00:41:24;98861.88;;;21.42;46.75
63399;BME280;49533;-34.520;150.798;2023-04-08T00:43:51;98877.94;;;21.51;46.70
63399;BME280;49533;-34.520;150.798;2023-04-08T00:46:19;98814.50;;;21.20;46.66
63399;BME280;49533;-34.520;150.798;2023-04-08T00:48:46;98828.13;;;21.31;46.75
63399;BME280;49533;-34.520;150.798;2023-04-08T00:51:13;98907.34;;;21.84;47.13
63399;BME280;49533;-34.520;150.798;2023-04-08T00:53:41;98887.91;;;21.88;47.09
63399;BME280;49533;-34.520;150.798;2023-04-08T00:56:09;98904.38;;;21.95;46.96
63399;BME280;49533;-34.520;150.798;2023-04-08T00:58:37;98881.19;;;21.89;46.71
63399;BME280;49533;-34.520;150.798;2023-04-08T01:01:27;98830.84;;;21.58;46.50
63399;BME280;49533;-34.520;150.798;2023-04-08T01:04:21;98771.81;;;21.24;46.31
63399;BME280;49533;-34.520;150.798;2023-04-08T01:07:00;98834.59;;;21.67;46.11
63399;BME280;49533;-34.520;150.798;2023-04-08T01:09:32;98891.06;;;22.10;45.86
63399;BME280;49533;-34.520;150.798;2023-04-08T01:12:05;98861.78;;;21.92;45.73
63399;BME280;49533;-34.520;150.798;2023-04-08T01:14:37;98880.28;;;22.15;45.94
63399;BME280;49533;-34.520;150.798;2023-04-08T01:17:05;98889.69;;;22.22;46.08
63399;BME280;49533;-34.520;150.798;2023-04-08T01:19:35;98870.66;;;22.04;45.98
63399;BME280;49533;-34.520;150.798;2023-04-08T01:22:21;98884.84;;;22.26;45.94
63399;BME280;49533;-34.520;150.798;2023-04-08T01:24:50;98864.91;;;22.14;45.58
63399;BME280;49533;-34.520;150.798;2023-04-08T01:27:22;98890.63;;;22.35;45.16
63399;BME280;49533;-34.520;150.798;2023-04-08T01:29:49;98902.38;;;22.39;45.65
63399;BME280;49533;-34.520;150.798;2023-04-08T01:32:17;98857.81;;;22.13;45.49
63399;BME280;49533;-34.520;150.798;2023-04-08T01:34:45;98892.53;;;22.38;45.00
63399;BME280;49533;-34.520;150.798;2023-04-08T01:37:14;98895.66;;;22.40;44.85
63399;BME280;49533;-34.520;150.798;2023-04-08T01:39:42;98888.03;;;22.44;45.21
63399;BME280;49533;-34.520;150.798;2023-04-08T01:42:11;98872.72;;;22.40;45.16
63399;BME280;49533;-34.520;150.798;2023-04-08T01:44:39;98829.63;;;22.19;45.36
63399;BME280;49533;-34.520;150.798;2023-04-08T01:47:08;98857.75;;;22.37;45.47
63399;BME280;49533;-34.520;150.798;2023-04-08T01:49:36;98861.50;;;22.47;45.35
63399;BME280;49533;-34.520;150.798;2023-04-08T01:52:04;98879.09;;;22.56;45.28
63399;BME280;49533;-34.520;150.798;2023-04-08T01:54:34;98805.63;;;21.96;44.61
63399;BME280;49533;-34.520;150.798;2023-04-08T01:57:05;98853.06;;;22.34;44.57
63399;BME280;49533;-34.520;150.798;2023-04-08T01:59:35;98872.84;;;22.52;44.22
63399;BME280;49533;-34.520;150.798;2023-04-08T02:02:06;98841.81;;;22.25;44.39
63399;BME280;49533;-34.520;150.798;2023-04-08T02:04:35;98874.31;;;22.57;44.40
63399;BME280;49533;-34.520;150.798;2023-04-08T02:07:04;98886.97;;;22.58;44.18
63399;BME280;49533;-34.520;150.798;2023-04-08T02:09:31;98886.19;;;22.57;44.46
63399;BME280;49533;-34.520;150.798;2023-04-08T02:11:59;98888.84;;;22.45;44.56
63399;BME280;49533;-34.520;150.798;2023-04-08T02:14:27;98897.31;;;22.54;43.93
63399;BME280;49533;-34.520;150.798;2023-04-08T02:17:04;98889.25;;;22.43;43.98
63399;BME280;49533;-34.520;150.798;2023-04-08T02:19:59;98869.66;;;22.34;44.00
63399;BME280;49533;-34.520;150.798;2023-04-08T02:22:37;98843.56;;;22.15;43.65
63399;BME280;49533;-34.520;150.798;2023-04-08T02:25:08;98891.00;;;22.53;43.94
63399;BME280;49533;-34.520;150.798;2023-04-08T02:27:39;98853.06;;;22.34;43.41
63399;BME280;49533;-34.520;150.798;2023-04-08T02:30:09;98788.97;;;21.99;43.22
63399;BME280;49533;-34.520;150.798;2023-04-08T02:32:37;98876.75;;;22.55;43.78
63399;BME280;49533;-34.520;150.798;2023-04-08T02:35:05;98862.47;;;22.56;43.10
63399;BME280;49533;-34.520;150.798;2023-04-08T02:37:32;98840.53;;;22.29;43.60
63399;BME280;49533;-34.520;150.798;2023-04-08T02:40:00;98800.84;;;22.16;42.98
63399;BME280;49533;-34.520;150.798;2023-04-08T02:42:29;98847.25;;;22.48;43.16
63399;BME280;49533;-34.520;150.798;2023-04-08T02:44:56;98833.69;;;22.34;43.24
63399;BME280;49533;-34.520;150.798;2023-04-08T02:47:23;98841.28;;;22.50;43.26
63399;BME280;49533;-34.520;150.798;2023-04-08T02:49:50;98761.84;;;22.10;43.41
63399;BME280;49533;-34.520;150.798;2023-04-08T02:52:19;98836.53;;;22.67;43.29
63399;BME280;49533;-34.520;150.798;2023-04-08T02:54:46;98839.66;;;22.69;42.94
63399;BME280;49533;-34.520;150.798;2023-04-08T02:57:13;98833.78;;;22.67;43.05
63399;BME280;49533;-34.520;150.798;2023-04-08T02:59:42;98827.81;;;22.68;42.67
63399;BME280;49533;-34.520;150.798;2023-04-08T03:02:09;98829.00;;;22.67;42.62
63399;BME280;49533;-34.520;150.798;2023-04-08T03:04:36;98710.34;;;21.80;43.02
63399;BME280;49533;-34.520;150.798;2023-04-08T03:07:03;98808.34;;;22.55;43.64
63399;BME280;49533;-34.520;150.798;2023-04-08T03:09:30;98749.94;;;22.13;43.34
63399;BME280;49533;-34.520;150.798;2023-04-08T03:11:57;98835.63;;;22.73;43.58
63399;BME280;49533;-34.520;150.798;2023-04-08T03:14:25;98791.13;;;22.48;43.50
63399;BME280;49533;-34.520;150.798;2023-04-08T03:16:52;98808.25;;;22.59;43.31
63399;BME280;49533;-34.520;150.798;2023-04-08T03:19:19;98788.78;;;22.46;43.09
63399;BME280;49533;-34.520;150.798;2023-04-08T03:21:46;98844.00;;;22.70;42.53
63399;BME280;49533;-34.520;150.798;2023-04-08T03:24:16;98845.06;;;22.76;43.06
63399;BME280;49533;-34.520;150.798;2023-04-08T03:26:43;98808.13;;;22.46;43.16
63399;BME280;49533;-34.520;150.798;2023-04-08T03:29:10;98769.38;;;22.30;42.92
63399;BME280;49533;-34.520;150.798;2023-04-08T03:31:38;98831.47;;;22.65;43.17
63399;BME280;49533;-34.520;150.798;2023-04-08T03:34:05;98794.19;;;22.33;43.70
63399;BME280;49533;-34.520;150.798;2023-04-08T03:36:32;98772.31;;;22.39;43.88
63399;BME280;49533;-34.520;150.798;2023-04-08T03:39:00;98792.88;;;22.58;43.89
63399;BME280;49533;-34.520;150.798;2023-04-08T03:41:29;98808.19;;;22.79;43.15
63399;BME280;49533;-34.520;150.798;2023-04-08T03:43:57;98818.03;;;22.80;43.71
63399;BME280;49533;-34.520;150.798;2023-04-08T03:46:24;98787.84;;;22.69;43.08
63399;BME280;49533;-34.520;150.798;2023-04-08T03:48:51;98774.25;;;22.58;43.02
63399;BME280;49533;-34.520;150.798;2023-04-08T03:51:18;98756.53;;;22.40;42.85
63399;BME280;49533;-34.520;150.798;2023-04-08T03:53:45;98803.53;;;22.76;43.03
63399;BME280;49533;-34.520;150.798;2023-04-08T03:56:13;98798.34;;;22.78;42.88
63399;BME280;49533;-34.520;150.798;2023-04-08T03:58:40;98796.00;;;22.60;43.09
63399;BME280;49533;-34.520;150.798;2023-04-08T04:01:08;98773.81;;;22.44;43.00
63399;BME280;49533;-34.520;150.798;2023-04-08T04:03:35;98827.72;;;22.72;43.22
63399;BME280;49533;-34.520;150.798;2023-04-08T04:06:02;98841.00;;;22.81;42.91
63399;BME280;49533;-34.520;150.798;2023-04-08T04:08:29;98841.78;;;22.81;42.42
63399;BME280;49533;-34.520;150.798;2023-04-08T04:10:58;98842.63;;;22.78;43.00
63399;BME280;49533;-34.520;150.798;2023-04-08T04:13:25;98854.91;;;22.77;42.42
63399;BME280;49533;-34.520;150.798;2023-04-08T04:15:52;98790.41;;;22.44;42.76
63399;BME280;49533;-34.520;150.798;2023-04-08T04:18:19;98829.31;;;22.73;42.99
63399;BME280;49533;-34.520;150.798;2023-04-08T04:20:46;98703.59;;;22.01;42.85
63399;BME280;49533;-34.520;150.798;2023-04-08T04:23:13;98826.81;;;22.78;43.09
63399;BME280;49533;-34.520;150.798;2023-04-08T04:25:41;98789.22;;;22.45;42.90
63399;BME280;49533;-34.520;150.798;2023-04-08T04:28:08;98777.78;;;22.43;42.69
63399;BME280;49533;-34.520;150.798;2023-04-08T04:30:37;98799.25;;;22.55;42.81
63399;BME280;49533;-34.520;150.798;2023-04-08T04:33:06;98826.25;;;22.67;42.65
63399;BME280;49533;-34.520;150.798;2023-04-08T04:35:33;98857.69;;;22.77;42.65
63399;BME280;49533;-34.520;150.798;2023-04-08T04:38:00;98787.34;;;22.22;42.53
63399;BME280;49533;-34.520;150.798;2023-04-08T04:40:27;98873.50;;;22.76;42.57
63399;BME280;49533;-34.520;150.798;2023-04-08T04:42:54;98883.81;;;22.76;42.79
63399;BME280;49533;-34.520;150.798;2023-04-08T04:45:21;98888.72;;;22.68;42.71
63399;BME280;49533;-34.520;150.798;2023-04-08T04:47:48;98916.94;;;22.79;42.79
63399;BME280;49533;-34.520;150.798;2023-04-08T04:50:15;98887.25;;;22.64;42.56
63399;BME280;49533;-34.520;150.798;2023-04-08T04:52:43;98891.56;;;22.65;42.79
63399;BME280;49533;-34.520;150.798;2023-04-08T04:55:10;98870.78;;;22.56;42.48
63399;BME280;49533;-34.520;150.798;2023-04-08T04:57:37;98900.34;;;22.79;42.48
63399;BME280;49533;-34.520;150.798;2023-04-08T05:00:04;98851.91;;;22.51;42.59
63399;BME280;49533;-34.520;150.798;2023-04-08T05:02:31;98889.91;;;22.67;42.53
63399;BME280;49533;-34.520;150.798;2023-04-08T05:04:59;98912.38;;;22.73;42.55
63399;BME280;49533;-34.520;150.798;2023-04-08T05:07:26;98867.66;;;22.54;41.99
63399;BME280;49533;-34.520;150.798;2023-04-08T05:09:53;98904.56;;;22.68;42.37
63399;BME280;49533;-34.520;150.798;2023-04-08T05:12:20;98871.56;;;22.57;42.47
63399;BME280;49533;-34.520;150.798;2023-04-08T05:14:47;98884.63;;;22.56;42.44
63399;BME280;49533;-34.520;150.798;2023-04-08T05:17:14;98913.81;;;22.77;42.13
63399;BME280;49533;-34.520;150.798;2023-04-08T05:19:41;98903.09;;;22.79;42.28
63399;BME280;49533;-34.520;150.798;2023-04-08T05:22:08;98879.84;;;22.57;41.95
63399;BME280;49533;-34.520;150.798;2023-04-08T05:24:36;98915.41;;;22.78;42.02
63399;BME280;49533;-34.520;150.798;2023-04-08T05:27:03;98892.16;;;22.56;42.46
63399;BME280;49533;-34.520;150.798;2023-04-08T05:29:30;98884.25;;;22.54;42.06
63399;BME280;49533;-34.520;150.798;2023-04-08T05:31:58;98913.81;;;22.77;42.25
63399;BME280;49533;-34.520;150.798;2023-04-08T05:34:26;98911.50;;;22.76;42.06
63399;BME280;49533;-34.520;150.798;2023-04-08T05:36:53;98922.56;;;22.76;42.43
63399;BME280;49533;-34.520;150.798;2023-04-08T05:39:20;98917.09;;;22.72;42.27
63399;BME280;49533;-34.520;150.798;2023-04-08T05:41:47;98913.91;;;22.74;41.90
63399;BME280;49533;-34.520;150.798;2023-04-08T05:44:14;98914.69;;;22.74;42.04
63399;BME280;49533;-34.520;150.798;2023-04-08T05:46:41;98902.84;;;22.74;41.50
63399;BME280;49533;-34.520;150.798;2023-04-08T05:49:08;98929.31;;;22.75;41.99
63399;BME280;49533;-34.520;150.798;2023-04-08T05:51:35;98917.03;;;22.76;41.46
63399;BME280;49533;-34.520;150.798;2023-04-08T05:54:02;98928.09;;;22.76;41.19
63399;BME280;49533;-34.520;150.798;2023-04-08T05:56:30;98893.50;;;22.48;40.61
63399;BME280;49533;-34.520;150.798;2023-04-08T05:58:57;98886.25;;;22.34;41.11
63399;BME280;49533;-34.520;150.798;2023-04-08T06:01:24;98931.28;;;22.74;41.15
63399;BME280;49533;-34.520;150.798;2023-04-08T06:03:52;98923.59;;;22.66;41.01
63399;BME280;49533;-34.520;150.798;2023-04-08T06:06:21;98912.03;;;22.51;41.43
63399;BME280;49533;-34.520;150.798;2023-04-08T06:08:49;98945.91;;;22.75;40.92
63399;BME280;49533;-34.520;150.798;2023-04-08T06:11:16;98901.94;;;22.41;40.79
63399;BME280;49533;-34.520;150.798;2023-04-08T06:13:43;98948.91;;;22.64;40.52
63399;BME280;49533;-34.520;150.798;2023-04-08T06:16:12;98901.44;;;22.46;40.70
63399;BME280;49533;-34.520;150.798;2023-04-08T06:18:39;98957.50;;;22.70;40.97
63399;BME280;49533;-34.520;150.798;2023-04-08T06:21:06;98966.66;;;22.67;40.79
63399;BME280;49533;-34.520;150.798;2023-04-08T06:23:33;98912.38;;;22.33;41.73
63399;BME280;49533;-34.520;150.798;2023-04-08T06:26:01;98954.09;;;22.62;41.51
63399;BME280;49533;-34.520;150.798;2023-04-08T06:28:29;98918.69;;;22.33;41.64
63399;BME280;49533;-34.520;150.798;2023-04-08T06:30:56;98919.75;;;22.20;41.55
63399;BME280;49533;-34.520;150.798;2023-04-08T06:33:24;98943.72;;;22.26;41.85
63399;BME280;49533;-34.520;150.798;2023-04-08T06:36:01;98948.34;;;22.33;41.73
63399;BME280;49533;-34.520;150.798;2023-04-08T06:38:29;98972.81;;;22.54;42.24
63399;BME280;49533;-34.520;150.798;2023-04-08T06:41:02;98967.94;;;22.42;42.45
63399;BME280;49533;-34.520;150.798;2023-04-08T06:43:30;98976.81;;;22.53;42.15
63399;BME280;49533;-34.520;150.798;2023-04-08T06:45:57;98952.97;;;22.40;41.51
63399;BME280;49533;-34.520;150.798;2023-04-08T06:48:24;98970.56;;;22.49;41.64
63399;BME280;49533;-34.520;150.798;2023-04-08T06:50:56;98966.88;;;22.36;41.84
63399;BME280;49533;-34.520;150.798;2023-04-08T06:53:24;98953.88;;;22.33;41.74
63399;BME280;49533;-34.520;150.798;2023-04-08T06:55:52;98975.25;;;22.32;41.81
63399;BME280;49533;-34.520;150.798;2023-04-08T06:58:19;98926.75;;;22.04;41.63
63399;BME280;49533;-34.520;150.798;2023-04-08T07:00:46;98965.69;;;22.37;41.28
63399;BME280;49533;-34.520;150.798;2023-04-08T07:03:13;98926.31;;;22.06;41.14
63399;BME280;49533;-34.520;150.798;2023-04-08T07:05:40;98920.84;;;22.02;41.07
63399;BME280;49533;-34.520;150.798;2023-04-08T07:08:08;98978.06;;;22.29;41.12
63399;BME280;49533;-34.520;150.798;2023-04-08T07:10:35;98876.59;;;21.59;40.76
63399;BME280;49533;-34.520;150.798;2023-04-08T07:13:02;98989.22;;;22.25;40.62
63399;BME280;49533;-34.520;150.798;2023-04-08T07:15:29;98963.34;;;22.12;40.28
63399;BME280;49533;-34.520;150.798;2023-04-08T07:17:56;98909.47;;;21.77;40.23
63399;BME280;49533;-34.520;150.798;2023-04-08T07:20:25;98936.00;;;21.94;40.29
63399;BME280;49533;-34.520;150.798;2023-04-08T07:22:52;98953.63;;;22.04;40.62
63399;BME280;49533;-34.520;150.798;2023-04-08T07:25:19;98917.47;;;21.71;40.09
63399;BME280;49533;-34.520;150.798;2023-04-08T07:27:46;98986.38;;;22.05;40.63
63399;BME280;49533;-34.520;150.798;2023-04-08T07:30:13;98923.88;;;21.64;40.10
63399;BME280;49533;-34.520;150.798;2023-04-08T07:32:40;98980.91;;;22.02;39.82
63399;BME280;49533;-34.520;150.798;2023-04-08T07:35:08;98934.09;;;21.67;40.49
63399;BME280;49533;-34.520;150.798;2023-04-08T07:37:36;98959.50;;;21.82;40.28
63399;BME280;49533;-34.520;150.798;2023-04-08T07:40:03;98988.59;;;21.90;39.99
63399;BME280;49533;-34.520;150.798;2023-04-08T07:42:31;98914.03;;;21.40;40.04
63399;BME280;49533;-34.520;150.798;2023-04-08T07:44:58;98917.22;;;21.38;40.22
63399;BME280;49533;-34.520;150.798;2023-04-08T07:47:25;99004.03;;;21.88;40.13
63399;BME280;49533;-34.520;150.798;2023-04-08T07:49:52;98922.81;;;21.31;40.56
63399;BME280;49533;-34.520;150.798;2023-04-08T07:52:19;98980.47;;;21.80;40.80
63399;BME280;49533;-34.520;150.798;2023-04-08T07:54:46;99001.28;;;21.88;40.71
63399;BME280;49533;-34.520;150.798;2023-04-08T07:57:13;99000.09;;;21.89;40.78
63399;BME280;49533;-34.520;150.798;2023-04-08T07:59:40;98970.38;;;21.69;41.10
63399;BME280;49533;-34.520;150.798;2023-04-08T08:02:07;99001.41;;;21.81;40.77
63399;BME280;49533;-34.520;150.798;2023-04-08T08:04:34;98977.66;;;21.60;41.04
63399;BME280;49533;-34.520;150.798;2023-04-08T08:07:02;98955.41;;;21.43;41.08
63399;BME280;49533;-34.520;150.798;2023-04-08T08:09:29;98968.81;;;21.45;41.36
63399;BME280;49533;-34.520;150.798;2023-04-08T08:11:56;99016.91;;;21.75;40.96
63399;BME280;49533;-34.520;150.798;2023-04-08T08:14:23;98963.06;;;21.32;40.96
63399;BME280;49533;-34.520;150.798;2023-04-08T08:16:52;99011.84;;;21.69;41.64
63399;BME280;49533;-34.520;150.798;2023-04-08T08:19:20;99031.19;;;21.69;40.82
63399;BME280;49533;-34.520;150.798;2023-04-08T08:21:47;99040.44;;;21.59;40.84
63399;BME280;49533;-34.520;150.798;2023-04-08T08:24:15;99030.75;;;21.47;40.74
63399;BME280;49533;-34.520;150.798;2023-04-08T08:26:42;98962.91;;;21.16;40.48
63399;BME280;49533;-34.520;150.798;2023-04-08T08:29:12;99039.25;;;21.60;41.13
63399;BME280;49533;-34.520;150.798;2023-04-08T08:31:39;99018.09;;;21.50;40.93
63399;BME280;49533;-34.520;150.798;2023-04-08T08:34:06;99013.50;;;21.36;41.26
63399;BME280;49533;-34.520;150.798;2023-04-08T08:36:34;99023.34;;;21.41;41.24
63399;BME280;49533;-34.520;150.798;2023-04-08T08:39:01;99021.00;;;21.36;41.16
63399;BME280;49533;-34.520;150.798;2023-04-08T08:41:33;98983.13;;;21.09;40.97
63399;BME280;49533;-34.520;150.798;2023-04-08T08:44:04;99020.81;;;21.23;41.14
63399;BME280;49533;-34.520;150.798;2023-04-08T08:46:34;99058.38;;;21.47;41.48
63399;BME280;49533;-34.520;150.798;2023-04-08T08:49:01;99017.63;;;21.24;41.38
63399;BME280;49533;-34.520;150.798;2023-04-08T08:51:28;99060.81;;;21.42;41.31
63399;BME280;49533;-34.520;150.798;2023-04-08T08:54:01;99028.56;;;21.32;41.61
63399;BME280;49533;-34.520;150.798;2023-04-08T08:56:28;99026.31;;;21.23;41.37
63399;BME280;49533;-34.520;150.798;2023-04-08T08:58:56;99036.91;;;21.28;41.33
63399;BME280;49533;-34.520;150.798;2023-04-08T09:01:30;98939.91;;;20.65;41.64
63399;BME280;49533;-34.520;150.798;2023-04-08T09:04:19;99047.88;;;21.35;41.94
63399;BME280;49533;-34.520;150.798;2023-04-08T09:06:49;99048.31;;;21.30;41.88
63399;BME280;49533;-34.520;150.798;2023-04-08T09:09:47;99052.38;;;21.22;41.79
63399;BME280;49533;-34.520;150.798;2023-04-08T09:12:15;99030.88;;;21.06;41.75
63399;BME280;49533;-34.520;150.798;2023-04-08T09:14:42;98978.03;;;20.73;41.98
63399;BME280;49533;-34.520;150.798;2023-04-08T09:17:09;99032.84;;;21.09;42.16
63399;BME280;49533;-34.520;150.798;2023-04-08T09:19:37;99053.16;;;21.22;41.60
63399;BME280;49533;-34.520;150.798;2023-04-08T09:22:08;98997.72;;;20.75;41.67
63399;BME280;49533;-34.520;150.798;2023-04-08T09:24:36;99056.63;;;21.30;42.10
63399;BME280;49533;-34.520;150.798;2023-04-08T09:27:04;99070.00;;;21.32;41.84
63399;BME280;49533;-34.520;150.798;2023-04-08T09:29:31;99054.09;;;21.12;41.46
63399;BME280;49533;-34.520;150.798;2023-04-08T09:32:00;99023.41;;;21.06;41.65
63399;BME280;49533;-34.520;150.798;2023-04-08T09:34:28;99054.34;;;21.21;41.43
63399;BME280;49533;-34.520;150.798;2023-04-08T09:36:59;99061.06;;;21.20;41.73
63399;BME280;49533;-34.520;150.798;2023-04-08T09:39:26;99069.00;;;21.18;42.04
63399;BME280;49533;-34.520;150.798;2023-04-08T09:41:57;99020.47;;;20.87;41.91
63399;BME280;49533;-34.520;150.798;2023-04-08T09:44:28;99040.81;;;21.00;41.64
63399;BME280;49533;-34.520;150.798;2023-04-08T09:47:07;99071.81;;;21.15;41.54
63399;BME280;49533;-34.520;150.798;2023-04-08T09:49:42;99081.72;;;21.12;41.70
63399;BME280;49533;-34.520;150.798;2023-04-08T09:52:19;99075.47;;;21.04;41.83
63399;BME280;49533;-34.520;150.798;2023-04-08T09:55:00;99088.50;;;21.04;42.43
63399;BME280;49533;-34.520;150.798;2023-04-08T09:57:43;98958.06;;;20.28;42.32
63399;BME280;49533;-34.520;150.798;2023-04-08T10:00:14;98993.75;;;20.42;41.49
63399;BME280;49533;-34.520;150.798;2023-04-08T10:05:37;99096.69;;;21.11;42.22
63399;BME280;49533;-34.520;150.798;2023-04-08T10:08:07;99048.31;;;20.65;41.85
63399;BME280;49533;-34.520;150.798;2023-04-08T10:10:37;99059.28;;;20.72;41.58
63399;BME280;49533;-34.520;150.798;2023-04-08T10:13:06;99071.81;;;20.80;41.59
63399;BME280;49533;-34.520;150.798;2023-04-08T10:15:34;99114.25;;;20.94;41.99
63399;BME280;49533;-34.520;150.798;2023-04-08T10:18:30;99111.13;;;20.92;41.75
63399;BME280;49533;-34.520;150.798;2023-04-08T10:20:58;99097.84;;;20.79;41.45
63399;BME280;49533;-34.520;150.798;2023-04-08T10:23:53;99095.38;;;20.89;41.89
63399;BME280;49533;-34.520;150.798;2023-04-08T10:26:32;99073.53;;;20.67;41.94
63399;BME280;49533;-34.520;150.798;2023-04-08T10:31:59;99085.84;;;20.59;41.77
63399;BME280;49533;-34.520;150.798;2023-04-08T10:34:27;99102.59;;;20.79;41.73
63399;BME280;49533;-34.520;150.798;2023-04-08T10:36:55;99100.22;;;20.77;41.57
63399;BME280;49533;-34.520;150.798;2023-04-08T10:39:25;99116.91;;;20.67;41.49
63399;BME280;49533;-34.520;150.798;2023-04-08T10:41:53;99118.78;;;20.77;42.02
63399;BME280;49533;-34.520;150.798;2023-04-08T10:44:24;99094.13;;;20.59;41.58
63399;BME280;49533;-34.520;150.798;2023-04-08T10:46:53;99104.78;;;20.57;41.64
63399;BME280;49533;-34.520;150.798;2023-04-08T10:49:20;99062.44;;;20.33;41.86
63399;BME280;49533;-34.520;150.798;2023-04-08T10:51:47;99135.41;;;20.70;41.56
63399;BME280;49533;-34.520;150.798;2023-04-08T10:54:16;99096.53;;;20.50;41.85
63399;BME280;49533;-34.520;150.798;2023-04-08T10:56:46;99112.25;;;20.53;41.69
63399;BME280;49533;-34.520;150.798;2023-04-08T10:59:16;99140.59;;;20.64;41.57
63399;BME280;49533;-34.520;150.798;2023-04-08T11:01:45;99043.41;;;20.01;41.71
63399;BME280;49533;-34.520;150.798;2023-04-08T11:04:15;99121.72;;;20.59;41.53
63399;BME280;49533;-34.520;150.798;2023-04-08T11:06:44;99122.56;;;20.49;41.36
63399;BME280;49533;-34.520;150.798;2023-04-08T11:09:13;99057.50;;;20.10;41.42
63399;BME280;49533;-34.520;150.798;2023-04-08T11:11:43;99127.25;;;20.52;41.70
63399;BME280;49533;-34.520;150.798;2023-04-08T11:14:11;99113.16;;;20.42;41.76
63399;BME280;49533;-34.520;150.798;2023-04-08T11:16:38;99128.81;;;20.53;41.68
63399;BME280;49533;-34.520;150.798;2023-04-08T11:19:06;99092.81;;;20.26;41.58
63399;BME280;49533;-34.520;150.798;2023-04-08T11:21:36;99119.38;;;20.50;41.39
63399;BME280;49533;-34.520;150.798;2023-04-08T11:24:10;99129.25;;;20.48;41.68
63399;BME280;49533;-34.520;150.798;2023-04-08T11:26:39;99136.38;;;20.45;41.54
63399;BME280;49533;-34.520;150.798;2023-04-08T11:29:09;99106.28;;;20.20;41.50
63399;BME280;49533;-34.520;150.798;2023-04-08T11:31:40;99068.63;;;19.95;41.92
63399;BME280;49533;-34.520;150.798;2023-04-08T11:34:08;99125.88;;;20.33;41.77
63399;BME280;49533;-34.520;150.798;2023-04-08T11:36:35;99128.53;;;20.44;42.06
63399;BME280;49533;-34.520;150.798;2023-04-08T11:39:13;99131.28;;;20.44;41.95
63399;BME280;49533;-34.520;150.798;2023-04-08T11:41:41;99125.38;;;20.41;41.69
63399;BME280;49533;-34.520;150.798;2023-04-08T11:44:08;99081.94;;;20.04;42.21
63399;BME280;49533;-34.520;150.798;2023-04-08T11:46:35;99016.16;;;19.54;42.19
63399;BME280;49533;-34.520;150.798;2023-04-08T11:49:04;99103.22;;;20.04;42.05
63399;BME280;49533;-34.520;150.798;2023-04-08T11:51:34;99114.97;;;20.15;42.30
63399;BME280;49533;-34.520;150.798;2023-04-08T11:54:05;99141.16;;;20.37;41.99
63399;BME280;49533;-34.520;150.798;2023-04-08T11:56:43;99157.38;;;20.35;42.02
63399;BME280;49533;-34.520;150.798;2023-04-08T11:59:12;99141.38;;;20.12;42.03
63399;BME280;49533;-34.520;150.798;2023-04-08T12:01:39;99163.66;;;20.32;42.37
63399;BME280;49533;-34.520;150.798;2023-04-08T12:04:06;99141.34;;;20.16;42.43
63399;BME280;49533;-34.520;150.798;2023-04-08T12:06:35;99146.38;;;20.28;42.36
63399;BME280;49533;-34.520;150.798;2023-04-08T12:09:02;99151.56;;;20.19;42.38
63399;BME280;49533;-34.520;150.798;2023-04-08T12:11:29;99131.53;;;20.15;42.57
63399;BME280;49533;-34.520;150.798;2023-04-08T12:13:57;99148.81;;;20.19;42.43
63399;BME280;49533;-34.520;150.798;2023-04-08T12:16:25;99141.75;;;20.14;42.38
63399;BME280;49533;-34.520;150.798;2023-04-08T12:18:52;99129.09;;;20.20;42.77
63399;BME280;49533;-34.520;150.798;2023-04-08T12:21:19;99136.97;;;20.22;42.79
63399;BME280;49533;-34.520;150.798;2023-04-08T12:23:46;99082.03;;;19.93;42.84
63399;BME280;49533;-34.520;150.798;2023-04-08T12:26:13;99107.19;;;20.03;42.86
63399;BME280;49533;-34.520;150.798;2023-04-08T12:28:40;99104.81;;;20.05;42.71
63399;BME280;49533;-34.520;150.798;2023-04-08T12:31:07;99107.19;;;20.03;42.81
63399;BME280;49533;-34.520;150.798;2023-04-08T12:33:34;99112.66;;;20.10;42.71
63399;BME280;49533;-34.520;150.798;2023-04-08T12:36:02;99112.28;;;20.08;42.36
63399;BME280;49533;-34.520;150.798;2023-04-08T12:38:29;99118.94;;;20.10;42.96
63399;BME280;49533;-34.520;150.798;2023-04-08T12:40:59;99119.72;;;20.11;42.42
63399;BME280;49533;-34.520;150.798;2023-04-08T12:43:26;99060.16;;;19.65;42.79
63399;BME280;49533;-34.520;150.798;2023-04-08T12:45:53;99087.59;;;19.86;42.74